Time;durP1;ratioP1;P1;durP2;ratioP2;P2;SDS_P1;SDS_P2;PMS_P1;PMS_P2;Temp;Humidity;BMP_temperature;BMP_pressure;BME280_temperature;BME280_humidity;BME280_pressure;Samples;Min_cycle;Max_cycle;Signal;HPM_P1;HPM_P2
2023/01/07 00:01:22;;;;;;;13.20;2.75;;;11.70;99.90;;;;;;5039570;28;20025;-82
2023/01/07 00:03:48;;;;;;;12.35;2.63;;;11.70;99.90;;;;;;5034074;28;20046;-82
2023/01/07 00:06:20;;;;;;;12.00;2.28;;;11.80;99.90;;;;;;5027024;28;20181;-82
2023/01/07 00:08:48;;;;;;;14.27;2.97;;;11.80;99.90;;;;;;5027129;28;20073;-82
2023/01/07 00:11:19;;;;;;;15.65;2.30;;;11.80;99.90;;;;;;5044696;28;20027;-82
2023/01/07 00:13:45;;;;;;;13.70;3.10;;;11.80;99.90;;;;;;5026574;28;20394;-82
2023/01/07 00:16:14;;;;;;;16.48;2.50;;;11.80;99.90;;;;;;5015942;28;20223;-82
2023/01/07 00:18:40;;;;;;;10.43;3.50;;;11.70;99.90;;;;;;5027186;28;20033;-82
2023/01/07 00:21:09;;;;;;;13.13;2.30;;;11.70;99.90;;;;;;5025291;28;20017;-82
2023/01/07 00:23:36;;;;;;;12.90;2.65;;;11.80;99.90;;;;;;5025484;28;20056;-82
2023/01/07 00:26:07;;;;;;;10.75;2.80;;;11.80;99.90;;;;;;5025790;28;20025;-82
2023/01/07 00:28:35;;;;;;;13.13;3.28;;;11.70;99.90;;;;;;5023745;28;20051;-82
2023/01/07 00:31:02;;;;;;;15.13;2.40;;;11.70;99.90;;;;;;5026839;28;20040;-82
2023/01/07 00:33:28;;;;;;;10.55;2.33;;;11.70;99.90;;;;;;5027395;28;20091;-82
2023/01/07 00:36:01;;;;;;;13.80;3.35;;;11.70;99.90;;;;;;5023761;28;20029;-82
2023/01/07 00:38:27;;;;;;;11.82;2.78;;;11.80;99.90;;;;;;5042309;28;20176;-82
2023/01/07 00:40:52;;;;;;;11.20;2.60;;;11.80;99.90;;;;;;5044501;28;20280;-82
2023/01/07 00:43:18;;;;;;;17.52;2.30;;;11.80;99.90;;;;;;5043122;28;20040;-82
2023/01/07 00:45:44;;;;;;;9.50;2.20;;;11.80;99.90;;;;;;5043812;28;20055;-82
2023/01/07 00:48:10;;;;;;;11.88;2.17;;;11.70;99.90;;;;;;5026090;28;20035;-82
2023/01/07 00:50:36;;;;;;;15.93;3.17;;;11.70;99.90;;;;;;5024425;28;20028;-82
2023/01/07 00:53:03;;;;;;;12.52;2.15;;;11.70;99.90;;;;;;5026206;28;20036;-82
2023/01/07 00:55:30;;;;;;;12.50;2.78;;;11.70;99.90;;;;;;5039142;28;20052;-82
2023/01/07 00:57:56;;;;;;;13.57;2.53;;;11.80;99.90;;;;;;5046972;28;20134;-82
2023/01/07 01:00:23;;;;;;;14.77;2.88;;;11.70;99.90;;;;;;5046409;28;20479;-82
2023/01/07 01:02:50;;;;;;;11.73;2.53;;;11.70;99.90;;;;;;5045890;28;20036;-81
2023/01/07 01:05:16;;;;;;;17.73;3.15;;;11.70;99.90;;;;;;5030016;28;20360;-82
2023/01/07 01:07:42;;;;;;;12.13;2.70;;;11.60;99.90;;;;;;5063297;28;20064;-82
2023/01/07 01:10:11;;;;;;;11.90;2.85;;;11.60;99.90;;;;;;5045739;28;20499;-82
2023/01/07 01:12:37;;;;;;;7.90;2.20;;;11.60;99.90;;;;;;5062632;28;20447;-81
2023/01/07 01:15:06;;;;;;;12.48;2.65;;;11.60;99.90;;;;;;5063953;28;20056;-82
2023/01/07 01:17:32;;;;;;;13.57;2.53;;;11.60;99.90;;;;;;5051689;28;20465;-82
2023/01/07 01:19:58;;;;;;;15.80;2.70;;;11.60;99.90;;;;;;5064300;28;20016;-82
2023/01/07 01:22:24;;;;;;;17.83;2.70;;;11.50;99.90;;;;;;5045283;28;20036;-82
2023/01/07 01:24:49;;;;;;;17.00;3.13;;;11.50;99.90;;;;;;5044603;28;20145;-82
2023/01/07 01:27:15;;;;;;;15.35;2.60;;;11.50;99.90;;;;;;5044417;28;20028;-82
2023/01/07 01:29:41;;;;;;;12.88;2.50;;;11.50;99.90;;;;;;5041620;28;20527;-81
2023/01/07 01:32:06;;;;;;;9.63;2.20;;;11.50;99.90;;;;;;5041281;28;20084;-82
2023/01/07 01:34:32;;;;;;;15.63;2.35;;;11.50;99.90;;;;;;5059943;28;20847;-82
2023/01/07 01:36:58;;;;;;;14.60;2.13;;;11.50;99.90;;;;;;5062096;28;20017;-82
2023/01/07 01:39:23;;;;;;;15.43;2.85;;;11.50;99.90;;;;;;5045180;28;20033;-82
2023/01/07 01:41:49;;;;;;;17.13;2.53;;;11.50;99.90;;;;;;5043920;28;20051;-82
2023/01/07 01:44:39;;;;;;;16.17;2.90;;;11.40;99.90;;;;;;5045901;28;20044;-82
2023/01/07 01:47:40;;;;;;;12.50;2.08;;;11.40;99.90;;;;;;5062308;28;20040;-81
2023/01/07 01:50:32;;;;;;;16.20;1.98;;;11.40;99.90;;;;;;5040097;28;20036;-81
2023/01/07 01:53:18;;;;;;;9.38;2.30;;;11.40;99.90;;;;;;5060747;28;20029;-81
2023/01/07 01:55:49;;;;;;;14.57;1.98;;;11.40;99.90;;;;;;5047899;28;20155;-81
2023/01/07 01:58:23;;;;;;;10.80;2.00;;;11.30;99.90;;;;;;5067145;28;20051;-81
2023/01/07 02:00:49;;;;;;;11.60;2.17;;;11.30;99.90;;;;;;5048512;28;20032;-79
2023/01/07 02:03:18;;;;;;;13.68;2.45;;;11.20;99.90;;;;;;5066061;28;20033;-82
2023/01/07 02:05:45;;;;;;;13.00;2.40;;;11.10;99.90;;;;;;5064316;28;20127;-82
2023/01/07 02:08:11;;;;;;;17.40;2.35;;;11.10;99.90;;;;;;5047891;28;20791;-81
2023/01/07 02:10:37;;;;;;;16.83;2.42;;;11.10;99.90;;;;;;5047357;28;20017;-81
2023/01/07 02:13:45;;;;;;;11.35;2.72;;;11.10;99.90;;;;;;5065295;28;20029;-82
2023/01/07 02:16:34;;;;;;;12.73;2.42;;;11.20;99.90;;;;;;5033900;28;20071;-82
2023/01/07 02:19:09;;;;;;;13.98;2.28;;;11.20;99.90;;;;;;5048213;28;20024;-82
2023/01/07 02:21:58;;;;;;;13.48;2.95;;;11.30;99.90;;;;;;5062179;28;20038;-82
2023/01/07 02:24:55;;;;;;;19.15;2.80;;;11.30;99.90;;;;;;5045303;28;20498;-81
2023/01/07 02:27:33;;;;;;;10.48;2.60;;;11.30;99.90;;;;;;5047167;28;20069;-82
2023/01/07 02:30:33;;;;;;;14.02;2.35;;;11.40;99.90;;;;;;5065054;28;20037;-81
2023/01/07 02:33:16;;;;;;;17.00;2.50;;;11.40;99.90;;;;;;5059099;28;20483;-82
2023/01/07 02:36:19;;;;;;;10.40;2.50;;;11.40;99.90;;;;;;5037557;28;20032;-82
2023/01/07 02:38:54;;;;;;;11.48;2.55;;;11.30;99.90;;;;;;5040110;28;20086;-82
2023/01/07 02:41:48;;;;;;;18.75;2.97;;;11.30;99.90;;;;;;5065689;28;20024;-82
2023/01/07 02:44:31;;;;;;;17.70;4.07;;;11.40;99.90;;;;;;5046464;28;20123;-82
2023/01/07 02:47:01;;;;;;;15.00;2.35;;;11.30;99.90;;;;;;5049248;28;20084;-82
2023/01/07 02:49:27;;;;;;;15.73;2.92;;;11.30;99.90;;;;;;5049256;28;20391;-82
2023/01/07 02:51:53;;;;;;;11.65;2.50;;;11.40;99.90;;;;;;5044883;28;20029;-82
2023/01/07 02:54:22;;;;;;;18.70;2.92;;;11.30;99.90;;;;;;5066865;28;20127;-82
2023/01/07 02:56:50;;;;;;;11.70;2.67;;;11.30;99.90;;;;;;5062707;28;20035;-82
2023/01/07 02:59:58;;;;;;;13.00;2.70;;;11.30;99.90;;;;;;5045898;28;20028;-82
2023/01/07 03:03:03;;;;;;;14.48;2.40;;;11.30;99.90;;;;;;5049008;28;20032;-82
2023/01/07 03:06:07;;;;;;;13.82;2.65;;;11.20;99.90;;;;;;5044598;28;20668;-82
2023/01/07 03:08:51;;;;;;;13.68;2.13;;;11.20;99.90;;;;;;5080285;28;20117;-81
2023/01/07 03:11:20;;;;;;;11.45;2.42;;;11.20;99.90;;;;;;5071217;28;20032;-82
2023/01/07 03:14:10;;;;;;;14.50;2.20;;;11.20;99.90;;;;;;5058571;28;20128;-82
2023/01/07 03:16:38;;;;;;;12.48;2.70;;;11.20;99.90;;;;;;5045071;28;20045;-82
2023/01/07 03:19:17;;;;;;;11.65;2.17;;;11.10;99.90;;;;;;5048463;28;20048;-82
2023/01/07 03:21:45;;;;;;;12.23;2.63;;;11.10;99.90;;;;;;5054975;28;20029;-82
2023/01/07 03:24:10;;;;;;;18.92;2.50;;;11.20;99.90;;;;;;5064427;28;20035;-82
2023/01/07 03:26:44;;;;;;;15.23;3.15;;;11.10;99.90;;;;;;5057525;28;20020;-82
2023/01/07 03:29:12;;;;;;;15.40;2.90;;;11.10;99.90;;;;;;5046194;28;20037;-83
2023/01/07 03:31:47;;;;;;;16.00;2.42;;;11.10;99.90;;;;;;5054424;28;20033;-81
2023/01/07 03:34:16;;;;;;;17.05;2.55;;;11.10;99.90;;;;;;5061533;28;20587;-81
2023/01/07 03:36:48;;;;;;;13.65;1.98;;;11.10;99.90;;;;;;5050473;28;20047;-81
2023/01/07 03:39:15;;;;;;;15.38;2.97;;;11.10;99.90;;;;;;5065973;28;20279;-81
2023/01/07 03:44:25;;;;;;;13.57;2.65;;;11.10;99.90;;;;;;5056972;28;20047;-81
2023/01/07 03:46:51;;;;;;;15.65;2.08;;;11.00;99.90;;;;;;5075418;28;20036;-82
2023/01/07 03:49:17;;;;;;;12.90;2.60;;;11.00;99.90;;;;;;5050289;28;20509;-82
2023/01/07 03:51:44;;;;;;;13.98;2.80;;;11.00;99.90;;;;;;5053035;28;20025;-82
2023/01/07 03:54:10;;;;;;;14.23;2.20;;;11.00;99.90;;;;;;5060521;28;20086;-83
2023/01/07 03:56:36;;;;;;;13.68;2.38;;;11.10;99.90;;;;;;5042057;28;20056;-82
2023/01/07 03:59:01;;;;;;;18.92;2.67;;;11.10;99.90;;;;;;5028169;28;20195;-82
2023/01/07 04:01:27;;;;;;;13.45;2.38;;;11.10;99.90;;;;;;5046131;28;20036;-82
2023/01/07 04:03:53;;;;;;;14.20;2.22;;;11.10;99.90;;;;;;5046163;28;20036;-82
2023/01/07 04:06:18;;;;;;;17.55;2.97;;;11.10;99.90;;;;;;5045116;28;20044;-82
2023/01/07 04:08:44;;;;;;;18.35;2.40;;;11.00;99.90;;;;;;5027383;28;20079;-82
2023/01/07 04:11:10;;;;;;;19.50;2.83;;;11.00;99.90;;;;;;5028359;28;20342;-82
2023/01/07 04:13:35;;;;;;;14.98;2.03;;;11.00;99.90;;;;;;5046041;28;20094;-81
2023/01/07 04:16:01;;;;;;;15.15;2.45;;;11.00;99.90;;;;;;5042126;28;20104;-82
2023/01/07 04:18:27;;;;;;;13.65;2.13;;;11.00;99.90;;;;;;5028283;28;20040;-82
2023/01/07 04:20:52;;;;;;;11.60;2.20;;;11.00;99.90;;;;;;5027743;28;20029;-81
2023/01/07 04:23:18;;;;;;;11.68;2.30;;;10.90;99.90;;;;;;5027684;28;20424;-82
2023/01/07 04:25:47;;;;;;;11.80;2.15;;;10.90;99.90;;;;;;5025193;28;20143;-82
2023/01/07 04:28:13;;;;;;;19.23;2.70;;;10.90;99.90;;;;;;5027721;28;20039;-82
2023/01/07 04:30:39;;;;;;;16.33;2.55;;;10.90;99.90;;;;;;5049593;28;20029;-82
2023/01/07 04:33:05;;;;;;;15.85;2.25;;;10.90;99.90;;;;;;5047484;28;20468;-82
2023/01/07 04:35:32;;;;;;;19.38;2.65;;;10.90;99.90;;;;;;5045976;28;20029;-82
2023/01/07 04:37:58;;;;;;;14.95;2.60;;;10.90;99.90;;;;;;5043102;28;20033;-82
2023/01/07 04:40:24;;;;;;;16.00;2.30;;;10.90;99.90;;;;;;5025478;28;20471;-81
2023/01/07 04:42:49;;;;;;;15.13;2.53;;;10.90;99.90;;;;;;5026573;28;20070;-82
2023/01/07 04:45:15;;;;;;;18.77;2.40;;;10.90;99.90;;;;;;5023401;28;20397;-82
2023/01/07 04:47:40;;;;;;;12.30;2.72;;;10.90;99.90;;;;;;5008203;28;20365;-82
2023/01/07 04:50:07;;;;;;;10.90;1.85;;;10.80;99.90;;;;;;5016649;28;20044;-82
2023/01/07 04:52:32;;;;;;;14.98;2.55;;;10.80;99.90;;;;;;5045442;28;20024;-82
2023/01/07 04:54:58;;;;;;;12.70;2.45;;;10.80;99.90;;;;;;5050979;28;20139;-82
2023/01/07 04:57:24;;;;;;;10.27;2.15;;;10.80;99.90;;;;;;5029213;28;20034;-82
2023/01/07 04:59:49;;;;;;;10.93;2.08;;;10.80;99.90;;;;;;5045038;28;20115;-82
2023/01/07 05:02:15;;;;;;;12.15;2.20;;;10.80;99.90;;;;;;5046908;28;20028;-82
2023/01/07 05:04:40;;;;;;;11.45;2.20;;;10.80;99.90;;;;;;5063982;28;20116;-82
2023/01/07 05:07:06;;;;;;;12.00;2.10;;;10.90;99.90;;;;;;5046559;28;20021;-81
2023/01/07 05:09:32;;;;;;;10.60;2.47;;;10.80;99.90;;;;;;5045430;28;20037;-82
2023/01/07 05:11:58;;;;;;;14.35;2.60;;;10.80;99.90;;;;;;5046347;28;20411;-82
2023/01/07 05:14:24;;;;;;;9.88;2.58;;;10.80;99.90;;;;;;5047467;28;20039;-82
2023/01/07 05:16:49;;;;;;;12.55;2.28;;;10.80;99.90;;;;;;5047447;28;20028;-81
2023/01/07 05:19:15;;;;;;;12.13;2.50;;;10.80;99.90;;;;;;5046794;28;20036;-82
2023/01/07 05:21:40;;;;;;;12.48;2.47;;;10.80;99.90;;;;;;5042462;28;20063;-82
2023/01/07 05:24:07;;;;;;;16.88;2.33;;;10.80;99.90;;;;;;5045705;28;20130;-82
2023/01/07 05:26:33;;;;;;;10.07;2.08;;;10.80;99.90;;;;;;5064269;28;20027;-82
2023/01/07 05:28:58;;;;;;;11.18;2.42;;;10.80;99.90;;;;;;5067487;28;20041;-81
2023/01/07 05:31:24;;;;;;;18.25;3.05;;;10.80;99.90;;;;;;5067325;28;20031;-81
2023/01/07 05:33:50;;;;;;;11.57;2.10;;;10.80;99.90;;;;;;5050769;28;20036;-82
2023/01/07 05:36:15;;;;;;;11.30;3.17;;;10.70;99.90;;;;;;5048072;28;20139;-81
2023/01/07 05:38:41;;;;;;;12.90;2.75;;;10.70;99.90;;;;;;5047907;28;20047;-82
2023/01/07 05:41:07;;;;;;;11.18;2.08;;;10.70;99.90;;;;;;5065409;28;20030;-82
2023/01/07 05:43:33;;;;;;;10.38;2.35;;;10.70;99.90;;;;;;5049080;28;20032;-82
2023/01/07 05:45:58;;;;;;;15.02;2.40;;;10.70;99.90;;;;;;5037147;28;20028;-81
2023/01/07 05:48:25;;;;;;;10.95;2.20;;;10.70;99.90;;;;;;5049719;28;20036;-82
2023/01/07 05:50:50;;;;;;;12.30;2.20;;;10.70;99.90;;;;;;5050991;28;20060;-82
2023/01/07 05:53:16;;;;;;;11.70;2.00;;;10.70;99.90;;;;;;5068037;28;20076;-82
2023/01/07 05:55:41;;;;;;;8.70;1.95;;;10.70;99.90;;;;;;5054877;28;20043;-82
2023/01/07 05:58:07;;;;;;;17.08;2.15;;;10.70;99.90;;;;;;5051082;28;20086;-82
2023/01/07 06:00:35;;;;;;;12.20;2.20;;;10.70;99.90;;;;;;5050739;28;20443;-82
2023/01/07 06:03:01;;;;;;;14.07;3.00;;;10.70;99.90;;;;;;5066380;28;20050;-81
2023/01/07 06:05:26;;;;;;;13.18;2.30;;;10.70;99.90;;;;;;5050625;28;20414;-82
2023/01/07 06:07:52;;;;;;;18.45;2.67;;;10.70;99.90;;;;;;5053837;28;20070;-82
2023/01/07 06:10:17;;;;;;;8.82;2.63;;;10.70;99.90;;;;;;5050717;28;20062;-81
2023/01/07 06:12:43;;;;;;;11.15;3.00;;;10.70;99.90;;;;;;5058182;28;20132;-82
2023/01/07 06:15:09;;;;;;;9.82;2.15;;;10.70;99.90;;;;;;5067408;28;20028;-83
2023/01/07 06:17:35;;;;;;;9.77;2.45;;;10.70;99.90;;;;;;5056457;28;20031;-82
2023/01/07 06:20:00;;;;;;;14.52;2.25;;;10.70;99.90;;;;;;5060832;28;20037;-81
2023/01/07 06:22:26;;;;;;;11.50;2.30;;;10.60;99.90;;;;;;5051234;28;20195;-82
2023/01/07 06:24:52;;;;;;;14.68;2.20;;;10.70;99.90;;;;;;5066615;28;20115;-82
2023/01/07 06:27:17;;;;;;;13.43;2.40;;;10.70;99.90;;;;;;5065848;28;20057;-82
2023/01/07 06:29:43;;;;;;;11.85;2.10;;;10.70;99.90;;;;;;5054447;28;20032;-82
2023/01/07 06:32:09;;;;;;;13.00;2.80;;;10.70;99.90;;;;;;5066160;28;20032;-83
2023/01/07 06:34:34;;;;;;;16.40;2.58;;;10.70;99.90;;;;;;5065584;28;20063;-82
2023/01/07 06:37:00;;;;;;;9.32;2.08;;;10.70;99.90;;;;;;5048052;28;20067;-82
2023/01/07 06:39:26;;;;;;;15.65;2.45;;;10.70;99.90;;;;;;5066927;28;20021;-82
2023/01/07 06:41:51;;;;;;;18.85;3.20;;;10.80;99.90;;;;;;5058115;28;20432;-82
2023/01/07 06:44:17;;;;;;;17.25;2.67;;;10.70;99.90;;;;;;5065590;28;20024;-82
2023/01/07 06:46:42;;;;;;;9.57;2.25;;;10.70;99.90;;;;;;5059179;28;20036;-82
2023/01/07 06:49:08;;;;;;;12.10;2.13;;;10.70;99.90;;;;;;5067042;28;20032;-81
2023/01/07 06:51:34;;;;;;;13.38;2.65;;;10.70;99.90;;;;;;5067186;28;20024;-81
2023/01/07 06:54:00;;;;;;;13.55;2.38;;;10.70;99.90;;;;;;5064406;28;20356;-82
2023/01/07 06:56:25;;;;;;;10.82;2.35;;;10.70;99.90;;;;;;5044194;28;20136;-82
2023/01/07 06:58:51;;;;;;;14.13;2.08;;;10.70;99.90;;;;;;5047409;28;20107;-82
2023/01/07 07:01:17;;;;;;;15.25;2.42;;;10.70;99.90;;;;;;5045567;28;20075;-83
2023/01/07 07:03:42;;;;;;;11.20;2.17;;;10.70;99.90;;;;;;5026894;28;20037;-82
2023/01/07 07:06:08;;;;;;;15.80;2.55;;;10.70;99.90;;;;;;5025958;28;20117;-82
2023/01/07 07:08:33;;;;;;;11.85;2.28;;;10.70;99.90;;;;;;5042889;28;20522;-81
2023/01/07 07:10:59;;;;;;;11.10;1.98;;;10.70;99.90;;;;;;5043913;28;20025;-82
2023/01/07 07:13:25;;;;;;;10.13;2.47;;;10.70;99.90;;;;;;5029760;28;20033;-82
2023/01/07 07:15:50;;;;;;;8.32;2.15;;;10.70;99.90;;;;;;5027732;28;20029;-82
2023/01/07 07:18:17;;;;;;;14.60;2.65;;;10.70;99.90;;;;;;5029320;28;20034;-81
2023/01/07 07:20:44;;;;;;;13.40;2.25;;;10.70;99.90;;;;;;5043830;28;20504;-81
2023/01/07 07:23:10;;;;;;;12.18;2.47;;;10.70;99.90;;;;;;5044423;28;20479;-81
2023/01/07 07:25:35;;;;;;;14.95;2.50;;;10.70;99.90;;;;;;5028962;28;20101;-81
2023/01/07 07:28:01;;;;;;;10.80;2.00;;;10.70;99.90;;;;;;5026430;28;20037;-82
2023/01/07 07:30:26;;;;;;;10.52;2.30;;;10.70;99.90;;;;;;5022097;28;20112;-81
2023/01/07 07:32:52;;;;;;;13.30;2.40;;;10.70;99.90;;;;;;5038100;28;20028;-81
2023/01/07 07:35:17;;;;;;;15.30;2.33;;;10.60;99.90;;;;;;5021836;28;20728;-81
2023/01/07 07:37:43;;;;;;;19.58;2.78;;;10.60;99.90;;;;;;5027003;28;20052;-82
2023/01/07 07:40:09;;;;;;;10.32;2.25;;;10.60;99.90;;;;;;5042726;28;20032;-82
2023/01/07 07:42:37;;;;;;;6.93;2.17;;;10.60;99.90;;;;;;5014773;28;20563;-81
2023/01/07 07:45:03;;;;;;;10.63;2.53;;;10.60;99.90;;;;;;5017518;28;20035;-82
2023/01/07 07:47:29;;;;;;;16.10;2.90;;;10.60;99.90;;;;;;5037167;28;20143;-81
2023/01/07 07:49:55;;;;;;;12.73;2.55;;;10.60;99.90;;;;;;5040963;28;20555;-82
2023/01/07 07:52:20;;;;;;;11.50;2.47;;;10.60;99.90;;;;;;5034393;28;20037;-82
2023/01/07 07:54:46;;;;;;;10.45;1.95;;;10.70;99.90;;;;;;5042783;28;20076;-82
2023/01/07 07:57:11;;;;;;;15.20;2.50;;;10.60;99.90;;;;;;5044015;28;20029;-81
2023/01/07 07:59:37;;;;;;;13.07;2.30;;;10.60;99.90;;;;;;5043487;28;20029;-81
2023/01/07 08:02:02;;;;;;;8.90;1.98;;;10.60;99.90;;;;;;5022352;28;20120;-82
2023/01/07 08:04:32;;;;;;;9.63;1.90;;;10.60;99.90;;;;;;5025426;28;20373;-82
2023/01/07 08:06:59;;;;;;;8.48;2.17;;;10.60;99.90;;;;;;5029010;28;20021;-82
2023/01/07 08:09:24;;;;;;;10.38;2.17;;;10.60;99.90;;;;;;5038330;28;20071;-81
2023/01/07 08:11:50;;;;;;;11.18;2.83;;;10.60;99.90;;;;;;5025950;28;20107;-81
2023/01/07 08:14:15;;;;;;;14.30;2.95;;;10.60;99.90;;;;;;5023640;28;20098;-81
2023/01/07 08:16:41;;;;;;;13.80;2.80;;;10.60;99.90;;;;;;5042757;28;20069;-82
2023/01/07 08:19:07;;;;;;;11.13;2.45;;;10.60;99.90;;;;;;5025060;28;20033;-81
2023/01/07 08:21:32;;;;;;;9.70;2.13;;;10.60;99.90;;;;;;5041379;28;20029;-82
2023/01/07 08:23:58;;;;;;;13.00;2.60;;;10.60;99.90;;;;;;5024740;28;20037;-82
2023/01/07 08:26:23;;;;;;;23.23;2.67;;;10.70;99.90;;;;;;5020832;28;20527;-83
2023/01/07 08:28:49;;;;;;;12.75;2.65;;;10.60;99.90;;;;;;5011567;28;20068;-81
2023/01/07 08:31:16;;;;;;;11.88;2.35;;;10.50;99.90;;;;;;5020734;28;20451;-82
2023/01/07 08:33:42;;;;;;;12.18;2.58;;;10.40;99.90;;;;;;5034172;28;20083;-82
2023/01/07 08:36:08;;;;;;;13.50;3.03;;;10.40;99.90;;;;;;5021456;28;20117;-82
2023/01/07 08:38:34;;;;;;;12.70;2.45;;;10.30;99.90;;;;;;5025009;28;20036;-82
2023/01/07 08:41:00;;;;;;;17.73;3.10;;;10.10;99.90;;;;;;5025446;28;20021;-82
2023/01/07 08:43:26;;;;;;;13.25;2.97;;;10.10;99.90;;;;;;5024958;28;20032;-82
2023/01/07 08:45:52;;;;;;;13.65;2.50;;;9.90;99.90;;;;;;5025970;28;20025;-82
2023/01/07 08:48:18;;;;;;;17.85;3.25;;;9.90;99.90;;;;;;5006820;28;20585;-81
2023/01/07 08:50:52;;;;;;;16.25;2.85;;;9.80;99.90;;;;;;5023584;28;20120;-83
2023/01/07 08:53:22;;;;;;;13.98;2.80;;;9.80;99.90;;;;;;5040173;28;20053;-82
2023/01/07 08:55:47;;;;;;;17.27;3.10;;;9.80;99.90;;;;;;5041850;28;20051;-82
2023/01/07 08:58:13;;;;;;;10.93;2.47;;;9.70;99.90;;;;;;5036842;28;20033;-81
2023/01/07 09:00:40;;;;;;;19.27;2.97;;;9.70;99.90;;;;;;5009351;28;20029;-81
2023/01/07 09:03:06;;;;;;;15.15;2.65;;;9.70;99.90;;;;;;5024880;28;20055;-81
2023/01/07 09:05:32;;;;;;;13.82;2.78;;;9.70;99.90;;;;;;5024640;28;20332;-81
2023/01/07 09:07:57;;;;;;;16.73;2.53;;;9.80;99.90;;;;;;5043416;28;20043;-82
2023/01/07 09:10:24;;;;;;;15.57;2.95;;;9.80;99.90;;;;;;5023066;28;20503;-81
2023/01/07 09:12:50;;;;;;;16.85;3.20;;;9.70;99.90;;;;;;5020503;28;20037;-82
2023/01/07 09:15:15;;;;;;;20.75;3.72;;;9.80;99.90;;;;;;5018111;28;20033;-81
2023/01/07 09:17:41;;;;;;;22.27;3.30;;;9.80;99.90;;;;;;5026633;28;20036;-82
2023/01/07 09:20:07;;;;;;;22.20;3.55;;;9.80;99.90;;;;;;5042380;28;20052;-82
2023/01/07 09:22:35;;;;;;;16.90;3.25;;;9.80;99.90;;;;;;5042322;28;20031;-82
2023/01/07 09:25:00;;;;;;;19.48;3.20;;;9.80;99.90;;;;;;5024701;28;20118;-81
2023/01/07 09:27:26;;;;;;;15.25;3.35;;;9.90;99.90;;;;;;5040844;28;20026;-81
2023/01/07 09:29:53;;;;;;;14.63;3.15;;;9.80;99.90;;;;;;5022467;28;20056;-82
2023/01/07 09:32:19;;;;;;;20.70;3.08;;;9.90;99.90;;;;;;5042768;28;20595;-82
2023/01/07 09:34:45;;;;;;;15.25;3.10;;;9.80;99.90;;;;;;5042121;28;20064;-82
2023/01/07 09:37:11;;;;;;;13.40;3.00;;;9.90;99.90;;;;;;5022159;28;20061;-80
2023/01/07 09:39:36;;;;;;;17.90;3.42;;;9.80;99.90;;;;;;5037732;28;20032;-81
2023/01/07 09:42:26;;;;;;;18.52;3.35;;;9.80;99.90;;;;;;5020187;28;20458;-82
2023/01/07 09:45:03;;;;;;;19.52;3.83;;;9.80;99.90;;;;;;5019197;28;20026;-81
2023/01/07 09:47:32;;;;;;;18.25;3.67;;;9.70;99.90;;;;;;5021194;28;20025;-82
2023/01/07 09:50:08;;;;;;;16.20;3.78;;;9.80;99.90;;;;;;5020973;28;20136;-81
2023/01/07 09:52:44;;;;;;;18.83;3.83;;;9.80;99.90;;;;;;5037662;28;20083;-82
2023/01/07 09:55:20;;;;;;;21.40;4.20;;;9.80;99.90;;;;;;5028225;28;20063;-82
2023/01/07 09:57:45;;;;;;;19.08;4.47;;;9.80;99.90;;;;;;5044697;28;20154;-83
2023/01/07 10:00:18;;;;;;;16.40;3.88;;;9.80;99.90;;;;;;5055402;28;20059;-82
2023/01/07 10:03:21;;;;;;;21.42;4.32;;;9.70;99.90;;;;;;5048302;28;20195;-82
2023/01/07 10:05:53;;;;;;;14.98;3.60;;;9.70;99.90;;;;;;5054817;28;20100;-81
2023/01/07 10:09:00;;;;;;;19.60;4.60;;;9.80;99.90;;;;;;5058548;28;20542;-82
2023/01/07 10:11:37;;;;;;;25.58;4.55;;;9.70;99.90;;;;;;5038775;28;20032;-82
2023/01/07 10:14:35;;;;;;;18.60;4.38;;;9.70;99.90;;;;;;5036706;28;20499;-82
2023/01/07 10:17:20;;;;;;;20.80;3.88;;;9.70;99.90;;;;;;5043032;28;20044;-82
2023/01/07 10:20:14;;;;;;;15.13;3.63;;;9.80;99.90;;;;;;5038313;28;20101;-82
2023/01/07 10:22:58;;;;;;;13.93;3.75;;;9.80;99.90;;;;;;5033974;28;20091;-82
2023/01/07 10:25:28;;;;;;;24.13;4.50;;;9.80;99.90;;;;;;5037270;28;20032;-83
2023/01/07 10:28:00;;;;;;;22.27;4.22;;;9.90;99.90;;;;;;5058164;28;20040;-82
2023/01/07 10:30:29;;;;;;;19.38;3.47;;;9.90;99.90;;;;;;5041001;28;20295;-82
2023/01/07 10:33:17;;;;;;;20.17;3.83;;;9.90;99.90;;;;;;5048754;28;20483;-82
2023/01/07 10:35:51;;;;;;;19.42;3.40;;;10.00;99.90;;;;;;5049273;28;20047;-82
2023/01/07 10:38:19;;;;;;;16.85;3.05;;;10.10;99.90;;;;;;5066124;28;20400;-82
2023/01/07 10:41:00;;;;;;;10.50;2.85;;;10.10;99.90;;;;;;5040661;28;20115;-82
2023/01/07 10:43:55;;;;;;;14.13;3.25;;;10.10;99.90;;;;;;5066157;28;20047;-82
2023/01/07 10:46:21;;;;;;;17.92;3.40;;;10.10;99.90;;;;;;5064825;28;20020;-82
2023/01/07 10:48:52;;;;;;;17.75;3.40;;;10.10;99.90;;;;;;5064116;28;20047;-81
2023/01/07 10:51:40;;;;;;;21.85;5.22;;;10.10;99.90;;;;;;5056998;28;20817;-83
2023/01/07 10:54:23;;;;;;;15.98;3.63;;;10.10;99.90;;;;;;5056172;28;20021;-81
2023/01/07 10:56:56;;;;;;;20.98;4.05;;;10.10;99.90;;;;;;5037611;28;20040;-81
2023/01/07 10:59:24;;;;;;;18.27;4.30;;;10.10;99.90;;;;;;5048279;28;20024;-81
2023/01/07 11:01:52;;;;;;;18.20;3.20;;;10.10;99.90;;;;;;5072924;28;20037;-80
2023/01/07 11:04:18;;;;;;;17.25;4.13;;;10.10;99.90;;;;;;5054301;28;20036;-81
2023/01/07 11:06:46;;;;;;;13.98;3.60;;;10.00;99.90;;;;;;5041830;28;20028;-81
2023/01/07 11:09:24;;;;;;;16.88;3.83;;;10.10;99.90;;;;;;5033280;28;20056;-82
2023/01/07 11:11:50;;;;;;;17.38;3.95;;;10.10;99.90;;;;;;5049440;28;20367;-82
2023/01/07 11:14:23;;;;;;;16.35;3.13;;;10.20;99.90;;;;;;5063165;28;20103;-81
2023/01/07 11:17:07;;;;;;;16.38;3.53;;;10.10;99.90;;;;;;5065135;28;20036;-81
2023/01/07 11:19:47;;;;;;;18.08;3.50;;;10.10;99.90;;;;;;5047234;28;20032;-81
2023/01/07 11:22:25;;;;;;;17.02;4.10;;;10.10;99.90;;;;;;5046388;28;20032;-82
2023/01/07 11:24:55;;;;;;;18.42;3.20;;;10.10;99.90;;;;;;5048028;28;20032;-82
2023/01/07 11:27:24;;;;;;;14.52;3.70;;;10.10;99.90;;;;;;5046787;28;20025;-81
2023/01/07 11:29:56;;;;;;;12.38;3.45;;;10.20;99.90;;;;;;5056964;28;20099;-83
2023/01/07 11:32:25;;;;;;;18.27;4.07;;;10.20;99.90;;;;;;5040629;28;20044;-81
2023/01/07 11:34:56;;;;;;;24.02;4.65;;;10.20;99.90;;;;;;5058641;28;20032;-81
2023/01/07 11:37:35;;;;;;;13.85;3.13;;;10.30;99.90;;;;;;5061906;28;20062;-82
2023/01/07 11:40:15;;;;;;;13.13;3.08;;;10.30;99.90;;;;;;5042076;28;20108;-83
2023/01/07 11:42:47;;;;;;;15.00;3.25;;;10.40;99.90;;;;;;5056810;28;20041;-81
2023/01/07 11:45:23;;;;;;;15.45;3.30;;;10.40;99.90;;;;;;5058894;28;20067;-81
2023/01/07 11:48:07;;;;;;;16.13;3.28;;;10.40;99.90;;;;;;5039199;28;20039;-81
2023/01/07 11:50:37;;;;;;;12.23;3.50;;;10.50;99.90;;;;;;5045638;28;20027;-81
2023/01/07 11:53:30;;;;;;;13.68;3.78;;;10.60;99.90;;;;;;5051936;28;20063;-82
2023/01/07 11:56:00;;;;;;;17.60;4.15;;;10.70;99.90;;;;;;5022299;28;20958;-82
2023/01/07 11:58:33;;;;;;;14.03;2.77;;;10.80;99.90;;;;;;5044480;28;20041;-82
2023/01/07 12:01:02;;;;;;;18.75;3.00;;;10.70;99.90;;;;;;5025677;28;20288;-82
2023/01/07 12:03:27;;;;;;;10.80;3.15;;;10.70;99.90;;;;;;5044131;28;20044;-82
2023/01/07 12:05:56;;;;;;;10.13;2.92;;;10.70;99.90;;;;;;5026760;28;20028;-81
2023/01/07 12:08:25;;;;;;;12.68;3.13;;;10.70;99.90;;;;;;5017152;28;20034;-81
2023/01/07 12:10:56;;;;;;;10.48;2.60;;;10.70;99.90;;;;;;5022354;28;20032;-81
2023/01/07 12:13:26;;;;;;;15.27;3.15;;;10.70;99.90;;;;;;5037105;28;20056;-81
2023/01/07 12:16:03;;;;;;;18.60;3.53;;;10.80;99.90;;;;;;5025230;28;20051;-81
2023/01/07 12:19:03;;;;;;;11.35;2.92;;;10.80;99.90;;;;;;5035687;28;20115;-81
2023/01/07 12:21:31;;;;;;;11.88;3.00;;;10.80;99.90;;;;;;5040777;28;20029;-81
2023/01/07 12:24:03;;;;;;;13.75;2.63;;;10.90;99.90;;;;;;5022570;28;20029;-82
2023/01/07 12:26:35;;;;;;;;;;;10.90;99.90;;;;;;5039542;28;20037;-82
2023/01/07 12:29:00;;;;;;;17.30;3.28;;;10.90;99.90;;;;;;5040449;28;19924;-82
2023/01/07 12:31:41;;;;;;;18.00;2.92;;;10.80;99.90;;;;;;5042547;28;20125;-81
2023/01/07 12:34:28;;;;;;;15.30;2.67;;;10.90;99.90;;;;;;5022731;28;20025;-81
2023/01/07 12:37:05;;;;;;;13.82;3.30;;;10.90;99.90;;;;;;5020226;28;20761;-81
2023/01/07 12:39:38;;;;;;;13.10;3.03;;;10.90;99.90;;;;;;4676119;28;10001495;-82
2023/01/07 12:42:19;;;;;;;13.30;2.72;;;10.90;99.90;;;;;;5041513;28;20456;-81
2023/01/07 12:44:56;;;;;;;11.70;2.92;;;10.80;99.90;;;;;;5022220;28;20079;-82
2023/01/07 12:47:45;;;;;;;12.38;2.90;;;10.70;99.90;;;;;;5039526;28;20037;-82
2023/01/07 12:50:10;;;;;;;14.85;3.00;;;10.60;99.90;;;;;;5021923;28;20055;-81
2023/01/07 12:52:45;;;;;;;15.00;2.75;;;10.60;99.90;;;;;;5039657;28;20032;-82
2023/01/07 12:55:29;;;;;;;15.50;2.95;;;10.60;99.90;;;;;;5024863;28;20685;-82
2023/01/07 12:58:18;;;;;;;13.70;3.40;;;10.60;99.90;;;;;;5042284;28;20442;-82